Time;durP1;ratioP1;P1;durP2;ratioP2;P2;SDS_P1;SDS_P2;PMS_P1;PMS_P2;Temp;Humidity;BMP_temperature;BMP_pressure;BME280_temperature;BME280_humidity;BME280_pressure;Samples;Min_cycle;Max_cycle;Signal;HPM_P1;HPM_P2
2023/01/15 00:00:40;;;;;;;4.23;1.80;;;;;;;9.20;100.00;99000.69;5980637;29;20035;-72
2023/01/15 00:03:35;;;;;;;1.00;0.30;;;;;;;9.21;100.00;99009.44;5980850;29;20071;-72
2023/01/15 00:06:37;;;;;;;1.30;0.37;;;;;;;9.16;100.00;99009.97;5981498;29;20035;-71
2023/01/15 00:09:32;;;;;;;0.47;0.30;;;;;;;9.08;100.00;99012.69;5981755;29;20419;-71
2023/01/15 00:12:27;;;;;;;0.50;0.33;;;;;;;9.06;100.00;99005.94;5980565;29;20050;-72
2023/01/15 00:15:22;;;;;;;1.73;0.73;;;;;;;9.07;100.00;99013.69;5981284;29;20039;-71
2023/01/15 00:18:18;;;;;;;1.03;0.57;;;;;;;8.97;100.00;98995.41;5980987;29;20043;-69
2023/01/15 00:21:13;;;;;;;1.50;0.97;;;;;;;9.04;100.00;99011.41;5980922;29;20058;-69
2023/01/15 00:27:37;;;;;;;3.20;1.00;;;;;;;8.79;100.00;99037.19;5980881;29;20039;-71
2023/01/15 00:30:33;;;;;;;1.83;1.13;;;;;;;8.14;100.00;99031.44;5981233;29;20039;-69
2023/01/15 00:33:29;;;;;;;2.22;0.93;;;;;;;7.80;100.00;99052.00;5979592;29;20055;-71
2023/01/15 00:36:24;;;;;;;3.07;1.30;;;;;;;7.57;100.00;99040.53;5980651;29;20058;-71
2023/01/15 00:39:20;;;;;;;3.38;1.00;;;;;;;7.45;100.00;99034.78;5980885;29;20039;-71
2023/01/15 00:42:16;;;;;;;1.50;0.97;;;;;;;7.43;100.00;99057.03;5979557;29;20526;-69
2023/01/15 00:45:11;;;;;;;2.58;1.08;;;;;;;7.30;100.00;99062.00;5980846;28;20271;-71
2023/01/15 00:48:07;;;;;;;1.48;0.95;;;;;;;7.20;100.00;99070.88;5980203;29;20039;-71
2023/01/15 00:51:03;;;;;;;1.67;0.70;;;;;;;7.03;100.00;99098.22;5979175;29;20043;-70
2023/01/15 00:53:59;;;;;;;2.92;0.77;;;;;;;6.81;100.00;99117.28;5979866;29;20031;-71
2023/01/15 00:56:54;;;;;;;2.25;0.60;;;;;;;6.54;100.00;99088.59;5979596;28;20483;-70
2023/01/15 00:59:49;;;;;;;2.00;0.93;;;;;;;6.51;100.00;99115.22;5980521;29;20046;-70
2023/01/15 01:02:45;;;;;;;1.90;0.77;;;;;;;6.37;100.00;99107.94;5979217;29;20039;-71
2023/01/15 01:05:40;;;;;;;1.77;0.67;;;;;;;6.30;100.00;99139.34;5980134;29;21622;-70
2023/01/15 01:08:35;;;;;;;3.17;1.37;;;;;;;6.20;100.00;99137.78;5980127;29;20045;-70
2023/01/15 01:11:33;;;;;;;2.90;1.27;;;;;;;6.03;100.00;99136.91;5979944;29;20027;-71
2023/01/15 01:14:28;;;;;;;3.13;0.70;;;;;;;6.09;100.00;99156.50;5979338;29;20110;-70
2023/01/15 01:17:23;;;;;;;1.63;1.03;;;;;;;6.03;100.00;99151.88;5979860;29;20085;-69
2023/01/15 01:20:19;;;;;;;3.30;0.80;;;;;;;5.87;100.00;99153.41;5980095;29;20274;-70
2023/01/15 01:23:14;;;;;;;1.70;0.77;;;;;;;5.83;100.00;99162.56;5977769;29;20439;-70
2023/01/15 01:26:09;;;;;;;1.03;0.73;;;;;;;5.63;100.00;99166.34;5979704;29;20106;-71
2023/01/15 01:29:05;;;;;;;1.63;0.60;;;;;;;5.61;100.00;99186.72;5979809;29;20050;-71
2023/01/15 01:32:00;;;;;;;2.85;1.00;;;;;;;5.47;100.00;99203.00;5978964;29;20035;-69
2023/01/15 01:34:56;;;;;;;3.03;0.40;;;;;;;5.37;100.00;99199.66;5979856;29;20062;-73
2023/01/15 01:37:51;;;;;;;2.13;0.70;;;;;;;5.22;100.00;99199.34;5979637;29;20119;-70
2023/01/15 01:40:47;;;;;;;3.03;0.50;;;;;;;5.12;100.00;99197.75;5978137;29;20471;-71
2023/01/15 01:43:57;;;;;;;3.30;0.40;;;;;;;5.12;100.00;99218.75;5978282;29;20046;-71
2023/01/15 01:46:53;;;;;;;0.85;0.38;;;;;;;5.11;100.00;99230.28;5968438;29;20524;-71
2023/01/15 01:49:51;;;;;;;2.47;0.67;;;;;;;4.99;100.00;99227.00;5979530;29;20031;-72
2023/01/15 01:52:52;;;;;;;2.38;0.40;;;;;;;5.01;100.00;99230.31;5976686;29;20063;-71
2023/01/15 01:55:49;;;;;;;0.38;0.30;;;;;;;4.95;100.00;99222.19;5979326;29;20038;-71
2023/01/15 01:58:47;;;;;;;3.83;0.30;;;;;;;4.94;100.00;99247.66;5979358;29;20035;-71
2023/01/15 02:01:42;;;;;;;1.30;0.52;;;;;;;4.86;100.00;99234.41;5961813;29;20027;-70
2023/01/15 02:04:39;;;;;;;0.23;0.10;;;;;;;4.82;100.00;99230.41;5978716;28;20090;-72
2023/01/15 02:07:34;;;;;;;3.78;0.73;;;;;;;4.71;100.00;99225.34;5965334;28;20038;-73
2023/01/15 02:10:29;;;;;;;0.65;0.28;;;;;;;4.73;100.00;99231.28;5986838;28;20039;-71
2023/01/15 02:13:36;;;;;;;1.60;0.53;;;;;;;4.54;100.00;99221.69;5985579;29;20063;-71
2023/01/15 02:16:36;;;;;;;2.80;0.32;;;;;;;4.64;100.00;99240.88;5969659;28;20110;-72
2023/01/15 02:19:57;;;;;;;1.27;0.47;;;;;;;4.59;100.00;99237.84;5969740;29;20062;-71
2023/01/15 02:23:11;;;;;;;1.33;0.20;;;;;;;4.56;100.00;99253.91;5985934;28;20035;-72
2023/01/15 02:26:36;;;;;;;0.65;0.20;;;;;;;4.48;100.00;99247.72;5987094;29;20043;-70
2023/01/15 02:29:44;;;;;;;0.38;0.28;;;;;;;4.36;100.00;99247.06;5986538;28;20039;-71
2023/01/15 02:33:07;;;;;;;0.70;0.20;;;;;;;4.32;100.00;99255.34;5968364;29;20046;-72
2023/01/15 02:36:05;;;;;;;1.75;0.55;;;;;;;4.36;100.00;99254.91;5961680;29;20047;-71
2023/01/15 02:39:02;;;;;;;1.00;0.20;;;;;;;4.34;100.00;99262.13;5969323;29;20070;-71
2023/01/15 02:42:01;;;;;;;0.10;0.10;;;;;;;4.24;100.00;99242.94;5968314;29;20031;-71
2023/01/15 02:44:58;;;;;;;1.48;0.40;;;;;;;4.20;100.00;99236.31;5968726;29;20475;-70
2023/01/15 02:47:57;;;;;;;0.45;0.15;;;;;;;4.23;100.00;99251.78;5985177;28;20031;-71
2023/01/15 02:51:10;;;;;;;1.98;0.22;;;;;;;4.28;100.00;99260.06;5986418;29;20027;-69
2023/01/15 02:54:10;;;;;;;0.60;0.20;;;;;;;4.26;100.00;99256.75;5985771;29;20166;-71
2023/01/15 02:57:07;;;;;;;1.60;0.20;;;;;;;4.27;100.00;99249.72;5969038;29;20036;-71
2023/01/15 03:00:06;;;;;;;3.38;0.47;;;;;;;4.21;100.00;99238.78;5968999;28;20031;-72
2023/01/15 03:03:20;;;;;;;2.10;0.30;;;;;;;4.28;100.00;99246.94;5968228;29;20501;-71
2023/01/15 03:06:20;;;;;;;;;;;;;;;4.39;100.00;99257.25;5986623;28;20031;-72
2023/01/15 03:09:16;;;;;;;4.13;0.57;;;;;;;4.33;100.00;99228.97;5969164;29;20279;-72
2023/01/15 03:12:19;;;;;;;2.35;0.38;;;;;;;4.31;100.00;99209.94;5984501;28;20035;-69
2023/01/15 03:16:33;;;;;;;1.77;0.30;;;;;;;4.27;100.00;99205.91;5969058;29;20167;-71
2023/01/15 03:18:39;;;;;;;1.65;0.20;;;;;;;4.26;100.00;99199.03;5969386;28;20074;-71
2023/01/15 03:21:38;;;;;;;;;;;;;;;4.35;100.00;99216.53;5965810;29;20137;-72
2023/01/15 03:24:39;;;;;;;0.10;0.10;;;;;;;4.35;100.00;99206.03;5964333;29;19922;-73
2023/01/15 03:27:34;;;;;;;0.45;0.10;;;;;;;4.34;100.00;99214.88;5965219;29;20117;-71
2023/01/15 03:30:29;;;;;;;2.83;0.17;;;;;;;4.38;100.00;99207.53;5982412;29;20043;-71
2023/01/15 03:33:26;;;;;;;0.63;0.47;;;;;;;4.30;100.00;99189.06;5964573;29;20094;-71
2023/01/15 03:36:22;;;;;;;2.28;0.47;;;;;;;4.34;100.00;99214.88;5982522;29;20042;-70
2023/01/15 03:39:17;;;;;;;1.70;0.37;;;;;;;4.32;100.00;99195.00;5982028;29;20039;-72
2023/01/15 03:42:36;;;;;;;1.20;0.20;;;;;;;4.45;100.00;99214.72;5981428;29;20391;-72
2023/01/15 03:45:36;;;;;;;0.10;0.10;;;;;;;4.35;100.00;99189.47;5976235;28;20290;-71
2023/01/15 03:49:00;;;;;;;0.60;0.25;;;;;;;4.45;100.00;99209.47;5982188;29;20114;-72
2023/01/15 03:51:59;;;;;;;0.52;0.20;;;;;;;4.48;100.00;99208.34;5942817;29;20379;-72
2023/01/15 03:55:25;;;;;;;3.65;0.57;;;;;;;4.43;100.00;99200.88;5982014;29;20097;-72
2023/01/15 03:58:26;;;;;;;0.77;0.30;;;;;;;4.48;100.00;99197.84;5971779;29;20035;-71
2023/01/15 04:01:30;;;;;;;0.38;0.32;;;;;;;4.42;100.00;99172.19;5964449;29;20493;-71
2023/01/15 04:04:26;;;;;;;1.73;0.35;;;;;;;4.41;100.00;99175.75;5980733;29;20034;-71
2023/01/15 04:07:22;;;;;;;0.80;0.47;;;;;;;4.51;100.00;99187.06;5981717;29;20039;-72
2023/01/15 04:10:17;;;;;;;4.28;0.40;;;;;;;4.56;100.00;99200.56;5964280;29;20086;-72
2023/01/15 04:13:13;;;;;;;1.67;0.23;;;;;;;4.56;100.00;99188.28;5980741;29;20035;-71
2023/01/15 04:16:08;;;;;;;2.90;0.33;;;;;;;4.67;100.00;99176.75;5981484;29;20050;-72
2023/01/15 04:19:03;;;;;;;1.10;0.40;;;;;;;4.66;100.00;99181.19;5980833;29;20101;-72
2023/01/15 04:21:59;;;;;;;2.20;0.50;;;;;;;4.59;99.74;99159.09;5980333;29;20114;-73
2023/01/15 04:24:54;;;;;;;1.83;0.37;;;;;;;4.65;100.00;99162.94;5981073;29;20043;-71
2023/01/15 04:27:53;;;;;;;1.27;0.27;;;;;;;4.66;100.00;99154.91;5981364;29;20046;-72
2023/01/15 04:30:48;;;;;;;2.45;0.50;;;;;;;4.67;99.32;99159.19;5980726;28;20039;-71
2023/01/15 04:33:43;;;;;;;1.43;0.30;;;;;;;4.71;99.13;99167.59;5979380;29;20550;-70
2023/01/15 04:36:38;;;;;;;2.43;0.33;;;;;;;4.76;98.42;99174.06;5980813;29;20039;-70
2023/01/15 04:39:34;;;;;;;2.43;0.53;;;;;;;4.79;98.14;99168.53;5980704;29;20035;-73
2023/01/15 04:45:56;;;;;;;0.95;0.38;;;;;;;4.75;97.06;99143.56;5979175;28;20466;-71
2023/01/15 04:48:52;;;;;;;0.80;0.40;;;;;;;4.76;97.10;99150.44;5980682;29;20047;-71
2023/01/15 04:51:47;;;;;;;1.30;0.50;;;;;;;4.58;96.35;99110.22;5979714;29;20278;-70
2023/01/15 04:54:42;;;;;;;2.93;0.30;;;;;;;4.86;95.96;99131.16;5980122;29;20514;-72
2023/01/15 04:57:38;;;;;;;1.77;0.47;;;;;;;4.86;95.76;99147.75;5980664;29;20505;-71
2023/01/15 05:00:33;;;;;;;0.80;0.35;;;;;;;4.89;95.43;99133.50;5980232;29;20043;-72
2023/01/15 05:03:29;;;;;;;0.30;0.30;;;;;;;4.95;94.09;99144.22;5979222;29;20038;-72
2023/01/15 05:06:25;;;;;;;0.82;0.50;;;;;;;4.91;94.30;99149.94;5980318;29;20379;-72
2023/01/15 05:09:20;;;;;;;1.58;0.60;;;;;;;4.96;94.64;99158.19;5979955;29;20039;-70
2023/01/15 05:12:15;;;;;;;0.57;0.37;;;;;;;4.91;93.84;99142.06;5979508;29;20428;-72
2023/01/15 05:15:11;;;;;;;2.47;0.57;;;;;;;4.94;94.52;99147.00;5979510;29;20387;-70
2023/01/15 05:18:06;;;;;;;3.40;0.60;;;;;;;4.87;94.79;99135.44;5980267;29;20035;-71
2023/01/15 05:21:01;;;;;;;1.37;0.53;;;;;;;5.01;94.68;99174.31;5979946;29;20039;-70
2023/01/15 05:23:59;;;;;;;4.20;0.60;;;;;;;4.91;94.62;99161.28;5979288;29;20054;-71
2023/01/15 05:26:54;;;;;;;3.42;0.70;;;;;;;4.91;94.96;99169.16;5979519;29;20029;-71
2023/01/15 05:29:50;;;;;;;1.95;0.60;;;;;;;4.93;95.14;99161.09;5979664;29;20039;-72
2023/01/15 05:32:45;;;;;;;3.07;0.70;;;;;;;4.93;94.38;99140.94;5977050;29;20035;-70
2023/01/15 05:35:40;;;;;;;3.67;0.90;;;;;;;4.90;94.15;99140.38;5979218;28;20584;-72
2023/01/15 05:38:35;;;;;;;4.23;0.90;;;;;;;4.87;94.73;99138.06;5979945;29;20035;-71
2023/01/15 05:41:49;;;;;;;0.65;0.60;;;;;;;4.92;95.40;99155.03;5979126;28;20071;-71
2023/01/15 05:44:44;;;;;;;2.33;0.70;;;;;;;4.95;94.80;99156.53;5979523;28;20054;-71
2023/01/15 05:47:40;;;;;;;1.57;0.80;;;;;;;4.99;94.00;99140.34;5979511;29;20035;-72
2023/01/15 05:50:35;;;;;;;0.73;0.57;;;;;;;4.98;94.27;99148.34;5979074;29;20034;-71
2023/01/15 05:53:33;;;;;;;3.83;0.60;;;;;;;5.05;93.73;99149.41;5978890;29;20418;-71
2023/01/15 05:56:30;;;;;;;5.32;0.80;;;;;;;5.06;93.81;99145.81;5979234;29;20035;-71
2023/01/15 05:59:27;;;;;;;2.47;0.95;;;;;;;5.08;93.06;99154.38;5979632;29;20035;-70
2023/01/15 06:02:22;;;;;;;2.97;0.70;;;;;;;5.02;93.24;99166.31;5978369;29;20036;-72
2023/01/15 06:05:19;;;;;;;2.60;0.65;;;;;;;5.00;93.16;99156.94;5962159;29;20034;-71
2023/01/15 06:08:14;;;;;;;4.32;0.70;;;;;;;5.04;93.14;99168.78;5979368;29;20034;-72
2023/01/15 06:11:10;;;;;;;2.13;0.80;;;;;;;5.04;93.37;99158.25;5979221;29;20035;-71
2023/01/15 06:14:05;;;;;;;1.63;0.52;;;;;;;5.05;93.57;99167.81;5978566;29;20035;-71
2023/01/15 06:17:00;;;;;;;2.28;0.60;;;;;;;5.05;92.96;99165.19;5979711;29;20045;-72
2023/01/15 06:19:56;;;;;;;4.37;0.80;;;;;;;5.13;92.73;99173.97;5978967;29;20040;-70
2023/01/15 06:22:51;;;;;;;3.47;1.00;;;;;;;5.04;92.25;99177.47;5977609;29;20567;-71
2023/01/15 06:25:46;;;;;;;2.27;0.73;;;;;;;5.09;92.77;99190.16;5978198;29;20035;-71
2023/01/15 06:28:42;;;;;;;6.23;1.07;;;;;;;5.10;92.55;99204.97;5979187;29;20047;-71
2023/01/15 06:31:38;;;;;;;2.17;0.75;;;;;;;5.08;93.11;99181.44;5978871;29;20150;-71
2023/01/15 06:34:33;;;;;;;4.00;0.97;;;;;;;5.09;91.99;99192.78;5978273;29;20376;-73
2023/01/15 06:37:28;;;;;;;5.37;1.27;;;;;;;5.06;92.08;99193.91;5978714;29;20033;-69
2023/01/15 06:40:25;;;;;;;5.93;0.87;;;;;;;5.12;92.21;99209.09;5978903;29;20035;-72
2023/01/15 06:49:54;;;;;;;2.50;0.88;;;;;;;5.12;92.17;99203.00;5967830;29;20028;-72
2023/01/15 06:52:49;;;;;;;1.90;0.73;;;;;;;5.17;92.07;99192.88;5977039;28;20055;-72
2023/01/15 06:55:44;;;;;;;2.83;0.80;;;;;;;5.13;91.92;99187.09;5983412;29;20035;-70
2023/01/15 06:58:41;;;;;;;3.97;1.10;;;;;;;5.24;91.27;99202.66;5983228;29;20082;-72
2023/01/15 07:01:36;;;;;;;4.13;0.90;;;;;;;5.28;90.73;99197.91;5982799;28;20406;-72
2023/01/15 07:04:32;;;;;;;3.50;0.80;;;;;;;5.31;90.04;99184.47;5964773;29;20054;-72
2023/01/15 07:07:28;;;;;;;3.13;0.70;;;;;;;5.33;89.57;99177.25;5982426;29;20031;-72
2023/01/15 07:10:23;;;;;;;3.35;0.95;;;;;;;5.30;89.59;99172.28;5982845;29;20366;-71
2023/01/15 07:13:18;;;;;;;2.80;1.03;;;;;;;5.34;89.51;99184.19;5982176;29;20402;-72
2023/01/15 07:16:29;;;;;;;3.83;1.10;;;;;;;5.30;89.80;99167.03;5982630;29;20267;-70
2023/01/15 07:19:25;;;;;;;2.47;1.02;;;;;;;5.27;89.50;99173.44;5982596;29;20042;-71
2023/01/15 07:22:20;;;;;;;2.13;0.93;;;;;;;5.31;89.77;99198.44;5981859;29;20035;-71
2023/01/15 07:25:15;;;;;;;5.00;1.27;;;;;;;5.27;89.89;99180.50;5982807;28;20126;-72
2023/01/15 07:28:10;;;;;;;5.20;1.20;;;;;;;5.38;89.06;99201.31;5982394;29;20067;-70
2023/01/15 07:31:06;;;;;;;4.93;1.40;;;;;;;5.40;89.30;99201.97;5982710;29;20402;-69
2023/01/15 07:34:01;;;;;;;4.27;1.07;;;;;;;5.40;89.05;99191.47;5980741;28;20050;-70
2023/01/15 07:36:56;;;;;;;8.00;1.93;;;;;;;5.36;88.80;99196.19;5982274;29;20114;-72
2023/01/15 07:39:52;;;;;;;2.90;1.40;;;;;;;5.37;89.17;99208.38;5982485;29;20638;-72
2023/01/15 07:52:28;;;;;;;4.68;1.27;;;;;;;5.25;89.08;99198.22;5981425;29;19910;-70
2023/01/15 07:55:24;;;;;;;4.80;1.40;;;;;;;5.30;88.50;99195.94;5981797;29;20039;-71
2023/01/15 07:58:19;;;;;;;5.35;1.23;;;;;;;5.34;87.81;99187.63;5980970;29;20023;-69
2023/01/15 08:01:15;;;;;;;4.67;1.07;;;;;;;5.31;88.07;99190.56;5981393;29;20035;-72
2023/01/15 08:04:10;;;;;;;6.20;1.65;;;;;;;5.36;87.97;99195.34;5980771;28;20035;-71
2023/01/15 08:07:05;;;;;;;4.20;1.23;;;;;;;5.34;88.50;99199.94;5981235;29;20038;-73
2023/01/15 08:10:01;;;;;;;1.45;0.90;;;;;;;5.36;88.10;99208.50;5981630;29;20035;-71
2023/01/15 08:16:10;;;;;;;3.50;1.40;;;;;;;5.27;87.86;99207.59;5981370;29;20762;-71
2023/01/15 08:19:05;;;;;;;3.13;1.33;;;;;;;5.35;87.78;99215.56;5981531;29;20039;-71
2023/01/15 08:22:00;;;;;;;3.43;1.20;;;;;;;5.33;87.33;99190.41;5980659;29;20101;-72
2023/01/15 08:24:56;;;;;;;5.63;1.65;;;;;;;5.35;87.87;99215.56;5981109;29;20491;-71
2023/01/15 08:27:51;;;;;;;2.87;1.40;;;;;;;5.35;88.12;99204.25;5981358;29;20050;-71
2023/01/15 08:30:46;;;;;;;5.68;1.30;;;;;;;5.32;87.77;99201.91;5980031;28;20031;-72
2023/01/15 08:33:42;;;;;;;4.67;1.00;;;;;;;5.36;87.63;99203.25;5980255;29;20027;-72
2023/01/15 08:36:37;;;;;;;6.57;1.40;;;;;;;5.42;87.82;99202.66;5980239;29;20039;-71
2023/01/15 08:39:32;;;;;;;4.47;1.30;;;;;;;5.46;86.79;99200.56;5978229;28;20094;-70
2023/01/15 08:42:28;;;;;;;2.83;1.30;;;;;;;5.44;86.25;99200.69;5977270;29;20094;-71
2023/01/15 08:45:23;;;;;;;4.23;0.90;;;;;;;5.43;86.20;99186.72;5979069;28;20045;-70
2023/01/15 08:48:18;;;;;;;6.53;1.23;;;;;;;5.54;85.57;99201.47;5980643;28;20762;-70
2023/01/15 08:51:14;;;;;;;5.77;1.10;;;;;;;5.49;85.58;99195.00;5980190;28;20279;-70
2023/01/15 08:54:11;;;;;;;7.78;1.00;;;;;;;5.52;85.67;99182.34;5979117;29;20372;-70
2023/01/15 08:57:08;;;;;;;2.42;0.90;;;;;;;5.54;85.05;99188.31;5979764;29;20151;-72
2023/01/15 09:00:05;;;;;;;6.80;1.20;;;;;;;5.61;84.66;99194.59;5979339;29;20044;-72
2023/01/15 09:03:00;;;;;;;2.53;1.05;;;;;;;5.55;85.21;99189.94;5978860;29;20082;-71
2023/01/15 09:05:58;;;;;;;6.40;1.10;;;;;;;5.58;84.80;99204.59;5979498;29;20035;-71
2023/01/15 09:08:53;;;;;;;4.47;1.00;;;;;;;5.68;84.35;99221.13;5979908;29;20033;-72
2023/01/15 09:11:48;;;;;;;4.87;1.53;;;;;;;5.68;83.64;99195.63;5979294;29;20407;-71
2023/01/15 09:14:44;;;;;;;2.53;1.00;;;;;;;5.70;83.46;99203.38;5979208;29;20034;-73
2023/01/15 09:17:40;;;;;;;5.23;1.17;;;;;;;5.68;83.23;99214.03;5978976;28;20035;-72
2023/01/15 09:20:36;;;;;;;4.57;1.55;;;;;;;5.57;83.44;99209.00;5979426;29;20119;-72
2023/01/15 09:23:32;;;;;;;3.53;1.10;;;;;;;5.54;83.59;99214.59;5978824;29;20039;-71
2023/01/15 09:26:30;;;;;;;4.47;1.00;;;;;;;5.46;83.35;99221.59;5979185;29;20038;-71
2023/01/15 09:29:25;;;;;;;5.35;1.20;;;;;;;5.52;83.65;99232.31;5979559;29;20122;-71
2023/01/15 09:32:21;;;;;;;12.20;2.37;;;;;;;5.48;83.45;99230.97;5978802;29;20478;-71
2023/01/15 09:35:16;;;;;;;3.78;1.08;;;;;;;5.47;83.98;99239.81;5979261;29;20086;-72
2023/01/15 09:38:14;;;;;;;4.40;1.00;;;;;;;5.49;83.76;99237.84;5979381;29;20059;-72
2023/01/15 09:44:38;;;;;;;1.42;0.75;;;;;;;5.62;83.44;99246.22;5963383;28;20035;-71
2023/01/15 09:48:11;;;;;;;4.95;1.15;;;;;;;5.68;82.83;99242.16;5978352;29;20427;-70
2023/01/15 09:51:25;;;;;;;2.95;0.88;;;;;;;5.71;82.72;99242.66;5960578;29;20066;-70
2023/01/15 09:54:52;;;;;;;4.85;1.33;;;;;;;5.64;82.59;99225.03;5978023;29;20046;-71
2023/01/15 09:57:50;;;;;;;3.95;1.08;;;;;;;5.69;82.88;99239.38;5979187;29;20044;-71
2023/01/15 10:00:48;;;;;;;3.22;1.10;;;;;;;5.69;82.25;99243.78;5978654;29;20560;-71
2023/01/15 10:03:51;;;;;;;3.55;1.00;;;;;;;5.78;81.47;99248.16;5960708;29;20065;-72
2023/01/15 10:06:55;;;;;;;5.50;1.25;;;;;;;5.87;81.12;99248.09;5961549;29;20077;-71
2023/01/15 10:09:57;;;;;;;1.80;1.00;;;;;;;5.82;81.02;99241.59;5971611;28;20486;-72
2023/01/15 10:12:56;;;;;;;4.72;0.90;;;;;;;5.75;81.36;99248.47;5960868;29;20102;-71
2023/01/15 10:15:52;;;;;;;3.53;0.80;;;;;;;5.73;81.14;99248.63;5961939;29;20498;-72
2023/01/15 10:18:47;;;;;;;14.40;1.10;;;;;;;5.75;79.97;99244.03;5978151;29;20027;-72
2023/01/15 10:21:50;;;;;;;4.82;0.75;;;;;;;5.67;79.27;99230.81;5978416;29;20031;-72
2023/01/15 10:24:54;;;;;;;3.42;0.80;;;;;;;5.58;78.47;99231.72;5961433;29;20031;-70
2023/01/15 10:27:50;;;;;;;2.13;0.60;;;;;;;5.53;77.78;99249.75;5978406;28;20117;-71
2023/01/15 10:30:50;;;;;;;1.45;0.60;;;;;;;5.46;78.56;99246.06;5983234;29;20455;-70
2023/01/15 10:34:23;;;;;;;2.45;0.60;;;;;;;5.41;79.60;99250.91;5965296;29;20047;-70
2023/01/15 10:37:25;;;;;;;3.28;0.60;;;;;;;5.34;81.35;99252.50;5982997;29;20453;-71
2023/01/15 10:40:42;;;;;;;1.73;0.43;;;;;;;5.36;81.86;99274.19;5982356;29;20122;-71
2023/01/15 10:43:49;;;;;;;0.88;0.52;;;;;;;5.32;82.47;99272.88;5980940;29;20023;-72
2023/01/15 10:46:49;;;;;;;0.63;0.50;;;;;;;5.21;82.69;99260.75;5976368;29;20123;-72
2023/01/15 10:49:45;;;;;;;2.70;0.40;;;;;;;5.17;83.40;99254.13;5982796;29;20375;-73
2023/01/15 10:52:43;;;;;;;1.73;0.50;;;;;;;5.09;83.61;99261.09;5979935;29;20058;-72
2023/01/15 10:55:44;;;;;;;1.13;0.50;;;;;;;5.13;84.39;99268.56;5965823;29;20035;-73
2023/01/15 10:59:00;;;;;;;1.15;0.40;;;;;;;5.11;84.67;99272.31;5965790;29;20031;-71
2023/01/15 11:01:58;;;;;;;3.65;1.00;;;;;;;5.02;84.99;99253.00;5980327;29;20509;-71
2023/01/15 11:04:53;;;;;;;1.85;0.60;;;;;;;5.08;85.06;99267.34;5982686;29;20082;-73
2023/01/15 11:07:51;;;;;;;1.17;0.50;;;;;;;5.03;85.31;99248.56;5959367;29;20486;-71
2023/01/15 11:10:46;;;;;;;1.05;0.70;;;;;;;5.00;85.58;99259.38;5982768;29;20042;-72
2023/01/15 11:20:42;;;;;;;3.95;0.93;;;;;;;5.20;85.26;99218.84;5961896;29;20062;-70
2023/01/15 11:23:37;;;;;;;2.92;0.43;;;;;;;5.49;83.84;99242.31;5964245;29;20490;-72
2023/01/15 11:26:33;;;;;;;3.50;0.80;;;;;;;5.51;81.97;99217.53;5963993;29;20046;-71
2023/01/15 11:29:36;;;;;;;6.85;0.85;;;;;;;5.64;82.56;99254.78;5981558;29;20042;-71
2023/01/15 11:32:32;;;;;;;1.88;0.70;;;;;;;5.64;81.88;99261.84;5963666;29;20035;-70
2023/01/15 11:35:27;;;;;;;3.13;1.05;;;;;;;5.68;82.01;99247.41;5981318;29;20031;-71
2023/01/15 11:38:24;;;;;;;2.23;1.00;;;;;;;5.80;80.98;99233.88;5981174;29;20049;-73
2023/01/15 11:51:30;;;;;;;4.28;0.95;;;;;;;6.18;75.94;99242.41;5979454;29;20726;-72
2023/01/15 11:54:26;;;;;;;3.45;0.73;;;;;;;6.22;74.84;99226.16;5963102;29;20034;-72
2023/01/15 11:57:31;;;;;;;3.08;0.80;;;;;;;6.28;74.54;99237.84;5980692;29;20403;-72
2023/01/15 12:00:31;;;;;;;1.55;0.70;;;;;;;6.44;73.70;99245.88;5980678;29;20042;-71
2023/01/15 12:03:29;;;;;;;3.05;1.02;;;;;;;6.50;72.14;99234.69;5979727;29;20039;-72
2023/01/15 12:06:25;;;;;;;4.65;0.77;;;;;;;6.48;72.06;99207.69;5981069;29;20038;-72
2023/01/15 12:09:32;;;;;;;3.65;0.80;;;;;;;6.52;71.88;99209.84;5981455;29;20034;-72
2023/01/15 12:12:46;;;;;;;2.33;0.55;;;;;;;6.54;71.02;99217.63;5963605;29;20065;-73
2023/01/15 12:15:58;;;;;;;1.83;0.55;;;;;;;6.61;69.47;99226.53;5963455;29;20117;-71
2023/01/15 12:19:30;;;;;;;1.30;0.60;;;;;;;6.62;68.79;99238.72;5963727;29;20031;-71
2023/01/15 12:22:42;;;;;;;2.28;0.40;;;;;;;6.81;68.00;99222.66;5980223;29;20545;-71
2023/01/15 12:25:53;;;;;;;5.22;1.02;;;;;;;6.85;67.49;99229.25;5964014;29;20550;-71
2023/01/15 12:29:14;;;;;;;2.55;0.57;;;;;;;6.84;66.58;99232.06;5964115;29;20388;-72
2023/01/15 12:32:14;;;;;;;3.42;0.77;;;;;;;6.83;66.01;99191.72;5960310;29;20074;-73
2023/01/15 12:35:18;;;;;;;4.30;0.60;;;;;;;6.81;65.73;99224.47;5951819;29;20035;-72
2023/01/15 12:38:23;;;;;;;1.73;0.57;;;;;;;6.75;66.25;99228.56;5963605;29;20072;-71
2023/01/15 12:41:25;;;;;;;2.70;0.55;;;;;;;6.77;66.07;99210.78;5980428;29;20043;-71
2023/01/15 12:48:11;;;;;;;4.60;0.80;;;;;;;6.68;65.87;99217.03;5961548;29;20039;-72
2023/01/15 12:51:13;;;;;;;2.97;0.55;;;;;;;6.57;66.61;99219.94;5978930;28;20402;-71
2023/01/15 12:54:13;;;;;;;3.80;0.70;;;;;;;6.56;66.68;99216.47;5978955;29;20102;-73
2023/01/15 12:57:13;;;;;;;5.20;0.60;;;;;;;6.68;66.79;99219.66;5962315;29;20090;-73
2023/01/15 13:00:08;;;;;;;2.85;0.70;;;;;;;6.67;66.25;99225.06;5979116;29;20032;-72
2023/01/15 13:03:25;;;;;;;3.60;0.77;;;;;;;6.67;67.07;99215.38;5973519;29;20042;-72
2023/01/15 13:06:25;;;;;;;1.75;0.57;;;;;;;6.70;66.98;99204.50;5978952;29;20031;-71
2023/01/15 13:09:33;;;;;;;1.95;0.85;;;;;;;6.71;66.65;99221.16;5962892;29;20046;-72
2023/01/15 13:12:28;;;;;;;;;;;;;;;6.69;66.10;99213.38;5979483;29;20031;-71
2023/01/15 13:15:28;;;;;;;3.17;0.67;;;;;;;6.66;65.68;99197.09;5979808;29;19933;-71
2023/01/15 13:19:08;;;;;;;0.80;0.55;;;;;;;6.76;65.40;99213.59;5979883;29;20066;-72
2023/01/15 13:22:15;;;;;;;2.58;0.60;;;;;;;6.73;65.23;99220.00;5963652;29;20043;-71
2023/01/15 13:25:30;;;;;;;4.53;0.90;;;;;;;6.66;65.28;99224.25;5976797;29;20035;-72
2023/01/15 13:28:50;;;;;;;2.88;0.93;;;;;;;6.77;64.69;99220.50;5962591;29;20041;-72
2023/01/15 13:31:57;;;;;;;3.05;0.90;;;;;;;6.68;64.49;99232.81;5979608;29;20087;-71
2023/01/15 13:35:28;;;;;;;3.97;1.52;;;;;;;6.68;65.35;99227.56;5961898;29;20027;-71
2023/01/15 13:38:26;;;;;;;6.22;0.90;;;;;;;6.62;64.67;99232.63;5977365;28;20031;-71
2023/01/15 13:44:46;;;;;;;4.53;0.90;;;;;;;6.53;65.54;99234.38;5952909;29;20110;-72
2023/01/15 13:47:48;;;;;;;2.35;1.10;;;;;;;6.52;66.85;99228.28;5961850;29;20039;-71
2023/01/15 13:50:56;;;;;;;2.67;1.10;;;;;;;6.48;67.50;99231.41;5960489;29;20050;-71
2023/01/15 13:53:52;;;;;;;3.95;1.15;;;;;;;6.52;67.46;99253.81;5961647;29;20454;-70
2023/01/15 13:56:47;;;;;;;2.70;1.30;;;;;;;6.46;66.81;99217.56;5979621;29;20039;-73
2023/01/15 13:59:43;;;;;;;2.30;0.70;;;;;;;6.48;66.18;99221.69;5979037;29;20047;-70
2023/01/15 14:02:39;;;;;;;3.38;1.10;;;;;;;6.54;66.14;99218.44;5977725;28;20023;-72
2023/01/15 14:05:35;;;;;;;3.35;1.17;;;;;;;6.59;65.95;99246.94;5979132;29;20027;-70
2023/01/15 14:08:42;;;;;;;3.55;0.68;;;;;;;6.61;65.85;99247.59;5979040;29;20042;-73
2023/01/15 14:11:53;;;;;;;1.95;0.90;;;;;;;6.60;67.14;99253.88;5979207;29;20845;-71
2023/01/15 14:15:20;;;;;;;6.53;1.05;;;;;;;6.62;66.43;99265.06;5979211;29;20035;-73
2023/01/15 14:18:17;;;;;;;;;;;;;;;6.62;66.23;99253.69;5956089;29;20519;-71
2023/01/15 14:21:28;;;;;;;2.50;1.00;;;;;;;6.50;66.16;99229.44;5961275;29;19918;-71
2023/01/15 14:24:40;;;;;;;2.72;0.77;;;;;;;6.58;66.19;99234.72;5961141;29;20031;-72
2023/01/15 14:27:48;;;;;;;3.28;0.75;;;;;;;6.55;66.49;99248.22;5978640;29;20042;-73
2023/01/15 14:31:01;;;;;;;3.85;0.80;;;;;;;6.55;66.54;99256.94;5962260;29;20039;-71
2023/01/15 14:34:10;;;;;;;3.55;0.90;;;;;;;6.47;67.38;99256.06;5961301;29;20062;-71
2023/01/15 14:37:11;;;;;;;3.10;1.05;;;;;;;6.57;66.60;99255.00;5979008;29;20126;-72
2023/01/15 14:40:17;;;;;;;2.95;0.93;;;;;;;6.55;67.12;99246.41;5978922;29;20038;-70
2023/01/15 14:43:17;;;;;;;9.88;2.42;;;;;;;6.46;67.34;99251.81;5977936;29;20039;-71
2023/01/15 14:46:20;;;;;;;4.28;2.08;;;;;;;6.57;66.55;99268.16;5961587;29;20035;-71
2023/01/15 14:49:30;;;;;;;4.88;1.00;;;;;;;6.58;66.06;99255.81;5962028;29;20041;-73
2023/01/15 14:52:25;;;;;;;4.63;0.93;;;;;;;6.66;65.79;99262.94;5977554;29;20039;-70
2023/01/15 14:55:21;;;;;;;10.33;1.43;;;;;;;6.63;66.28;99256.19;5961912;29;21451;-71
2023/01/15 14:58:42;;;;;;;2.85;1.00;;;;;;;6.68;65.40;99268.88;5978523;29;20337;-72
2023/01/15 15:01:49;;;;;;;3.47;1.23;;;;;;;6.69;64.88;99270.50;5978593;29;20039;-72
2023/01/15 15:04:50;;;;;;;3.78;1.00;;;;;;;6.63;65.40;99272.00;5978387;29;20039;-71
2023/01/15 15:07:47;;;;;;;3.42;0.88;;;;;;;6.70;65.23;99275.63;5961963;29;20625;-72